createdAt,value
2018-01-25T00:00:53.399Z,0.00
2018-01-25T00:01:53.428Z,0.00
2018-01-25T00:02:53.390Z,0.00
2018-01-25T00:03:53.428Z,0.00
2018-01-25T00:04:53.439Z,0.00
2018-01-25T00:05:53.395Z,0.00
2018-01-25T00:06:53.385Z,0.00
2018-01-25T00:07:53.383Z,0.00
2018-01-25T00:08:53.424Z,0.00
2018-01-25T00:09:53.437Z,0.00
2018-01-25T00:10:53.387Z,0.00
2018-01-25T00:11:53.383Z,0.00
2018-01-25T00:12:53.390Z,0.00
2018-01-25T00:13:53.386Z,0.00
2018-01-25T00:14:53.422Z,0.00
2018-01-25T00:15:53.388Z,0.00
2018-01-25T00:16:53.378Z,0.00
2018-01-25T00:17:53.376Z,0.00
2018-01-25T00:18:53.380Z,0.00
2018-01-25T00:19:53.417Z,0.00
2018-01-25T00:20:53.377Z,0.00
2018-01-25T00:21:53.385Z,0.00
2018-01-25T00:22:53.373Z,0.00
2018-01-25T00:23:53.381Z,0.00
2018-01-25T00:24:53.413Z,0.00
2018-01-25T00:25:53.370Z,0.00
2018-01-25T00:26:53.371Z,0.00
2018-01-25T00:27:53.379Z,0.00
2018-01-25T00:28:53.369Z,0.00
2018-01-25T00:29:53.408Z,0.00
2018-01-25T00:30:53.380Z,0.00
2018-01-25T00:31:53.366Z,0.00
2018-01-25T00:32:53.369Z,0.00
2018-01-25T00:33:53.366Z,0.00
2018-01-25T00:34:53.410Z,0.00
2018-01-25T00:35:53.375Z,0.00
2018-01-25T00:36:53.365Z,0.00
2018-01-25T00:37:53.408Z,0.00
2018-01-25T00:38:53.362Z,0.00
2018-01-25T00:39:53.373Z,0.00
2018-01-25T00:40:53.412Z,0.00
2018-01-25T00:41:53.370Z,0.00
2018-01-25T00:42:53.369Z,0.00
2018-01-25T00:43:53.366Z,0.00
2018-01-25T00:44:53.355Z,0.00
2018-01-25T00:45:53.403Z,0.00
2018-01-25T00:46:53.364Z,0.00
2018-01-25T00:47:53.401Z,0.00
2018-01-25T00:48:53.361Z,0.00
2018-01-25T00:49:53.362Z,0.00
2018-01-25T00:50:53.352Z,0.00
2018-01-25T00:51:53.403Z,0.00
2018-01-25T00:52:53.363Z,0.00
2018-01-25T00:53:53.359Z,0.00
2018-01-25T00:54:53.347Z,0.00
2018-01-25T00:55:53.347Z,0.00
2018-01-25T00:56:53.399Z,0.00
2018-01-25T00:57:53.345Z,0.00
2018-01-25T00:58:53.348Z,0.00
2018-01-25T00:59:53.344Z,0.00
2018-01-25T01:00:53.343Z,0.00
2018-01-25T01:01:53.380Z,0.00
2018-01-25T01:02:53.354Z,0.00
2018-01-25T01:03:53.340Z,0.00
2018-01-25T01:04:53.349Z,0.00
2018-01-25T01:05:54.255Z,0.00
2018-01-25T01:06:53.386Z,0.00
2018-01-25T01:07:53.379Z,0.00
2018-01-25T01:08:53.340Z,0.00
2018-01-25T01:09:53.336Z,0.00
2018-01-25T01:10:53.345Z,0.00
2018-01-25T01:11:53.334Z,0.00
2018-01-25T01:12:53.376Z,0.00
2018-01-25T01:13:53.342Z,0.00
2018-01-25T01:14:53.341Z,0.00
2018-01-25T01:15:53.333Z,0.00
2018-01-25T01:16:53.339Z,0.00
2018-01-25T01:17:53.378Z,0.00
2018-01-25T01:18:53.328Z,0.00
2018-01-25T01:19:53.336Z,0.00
2018-01-25T01:20:53.330Z,0.00
2018-01-25T01:21:53.334Z,0.00
2018-01-25T01:22:53.898Z,0.00
2018-01-25T01:23:53.325Z,0.00
2018-01-25T01:24:53.325Z,0.00
2018-01-25T01:25:53.331Z,0.00
2018-01-25T01:26:53.332Z,0.00
2018-01-25T01:27:53.378Z,0.00
2018-01-25T01:28:54.168Z,0.00
2018-01-25T01:29:53.320Z,0.00
2018-01-25T01:30:53.316Z,0.00
2018-01-25T01:31:53.319Z,0.00
2018-01-25T01:32:53.377Z,0.00
2018-01-25T01:33:53.316Z,0.00
2018-01-25T01:34:53.325Z,0.00
2018-01-25T01:35:53.325Z,0.00
2018-01-25T01:36:53.316Z,0.00
2018-01-25T01:37:53.362Z,0.00
2018-01-25T01:38:53.356Z,0.00
2018-01-25T01:39:53.312Z,0.00
2018-01-25T01:40:53.309Z,0.00
2018-01-25T01:41:53.308Z,0.00
2018-01-25T01:42:53.306Z,0.00
2018-01-25T01:43:53.351Z,0.00
2018-01-25T01:44:53.309Z,0.00
2018-01-25T01:45:53.304Z,0.00
2018-01-25T01:46:53.306Z,0.00
2018-01-25T01:47:53.313Z,0.00
2018-01-25T01:48:53.359Z,0.00
2018-01-25T01:49:53.302Z,0.00
2018-01-25T01:50:53.302Z,0.00
2018-01-25T01:51:53.342Z,0.00
2018-01-25T01:52:53.308Z,0.00
2018-01-25T01:53:53.306Z,0.00
2018-01-25T01:54:53.351Z,0.00
2018-01-25T01:55:53.304Z,0.00
2018-01-25T01:56:53.307Z,0.00
2018-01-25T01:57:53.294Z,0.00
2018-01-25T01:58:53.292Z,0.00
2018-01-25T01:59:53.344Z,0.00
2018-01-25T02:00:53.302Z,0.00
2018-01-25T02:01:53.298Z,0.00
2018-01-25T02:02:53.290Z,0.00
2018-01-25T02:03:53.290Z,0.00
2018-01-25T02:04:53.326Z,0.00
2018-01-25T02:05:53.287Z,0.00
2018-01-25T02:06:53.294Z,0.00
2018-01-25T02:07:53.293Z,0.00
2018-01-25T02:08:53.285Z,0.00
2018-01-25T02:09:53.687Z,0.00
2018-01-25T02:10:53.283Z,0.00
2018-01-25T02:11:53.293Z,0.00
2018-01-25T02:12:53.284Z,0.00
2018-01-25T02:13:53.279Z,0.00
2018-01-25T02:14:53.330Z,0.00
2018-01-25T02:15:53.285Z,0.00
2018-01-25T02:16:53.286Z,0.00
2018-01-25T02:17:53.274Z,0.00
2018-01-25T02:18:53.288Z,0.00
2018-01-25T02:19:53.328Z,0.00
2018-01-25T02:20:53.275Z,0.00
2018-01-25T02:21:53.313Z,0.00
2018-01-25T02:22:53.272Z,0.00
2018-01-25T02:23:53.272Z,0.00
2018-01-25T02:24:53.268Z,0.00
2018-01-25T02:25:53.317Z,0.00
2018-01-25T02:26:53.276Z,0.00
2018-01-25T02:27:53.264Z,0.00
2018-01-25T02:28:53.274Z,0.00
2018-01-25T02:29:53.264Z,0.00
2018-01-25T02:30:53.302Z,0.00
2018-01-25T02:31:53.273Z,0.00
2018-01-25T02:32:53.265Z,0.00
2018-01-25T02:33:53.247Z,0.00
2018-01-25T02:34:53.257Z,0.00
2018-01-25T02:35:53.315Z,0.00
2018-01-25T02:36:53.287Z,0.00
2018-01-25T02:37:53.246Z,0.00
2018-01-25T02:38:53.244Z,0.00
2018-01-25T02:39:53.244Z,0.00
2018-01-25T02:40:53.242Z,0.00
2018-01-25T02:41:53.281Z,0.00
2018-01-25T02:42:53.249Z,0.00
2018-01-25T02:43:53.249Z,0.00
2018-01-25T02:44:53.237Z,0.00
2018-01-25T02:45:53.236Z,0.00
2018-01-25T02:46:53.275Z,0.00
2018-01-25T02:47:53.244Z,0.00
2018-01-25T02:48:53.232Z,0.00
2018-01-25T02:49:53.235Z,0.00
2018-01-25T02:50:53.240Z,0.00
2018-01-25T02:51:53.280Z,0.00
2018-01-25T02:52:53.238Z,0.00
2018-01-25T02:53:53.761Z,0.00
2018-01-25T02:54:53.226Z,0.00
2018-01-25T02:55:53.235Z,0.00
2018-01-25T02:56:53.274Z,0.00
2018-01-25T02:57:53.225Z,0.00
2018-01-25T02:58:53.236Z,0.00
2018-01-25T02:59:53.221Z,0.00
2018-01-25T03:00:53.263Z,0.00
2018-01-25T03:01:53.219Z,0.00
2018-01-25T03:02:53.227Z,0.00
2018-01-25T03:03:53.227Z,0.00
2018-01-25T03:04:53.220Z,0.00
2018-01-25T03:05:53.253Z,0.00
2018-01-25T03:06:53.213Z,0.00
2018-01-25T03:07:53.213Z,0.00
2018-01-25T03:08:53.211Z,0.00
2018-01-25T03:09:53.219Z,0.00
2018-01-25T03:10:53.248Z,0.00
2018-01-25T03:11:53.246Z,0.00
2018-01-25T03:12:53.209Z,0.00
2018-01-25T03:13:53.210Z,0.00
2018-01-25T03:14:53.205Z,0.00
2018-01-25T03:15:53.244Z,0.00
2018-01-25T03:16:53.204Z,0.00
2018-01-25T03:17:53.202Z,0.00
2018-01-25T03:18:53.200Z,0.00
2018-01-25T03:19:53.199Z,0.00
2018-01-25T03:20:53.255Z,0.00
2018-01-25T03:21:53.197Z,0.00
2018-01-25T03:22:53.209Z,0.00
2018-01-25T03:23:53.224Z,0.00
2018-01-25T03:24:53.196Z,0.00
2018-01-25T03:25:53.246Z,0.00
2018-01-25T03:26:53.249Z,0.00
2018-01-25T03:27:53.199Z,0.00
2018-01-25T03:28:53.193Z,0.00
2018-01-25T03:29:53.198Z,0.00
2018-01-25T03:30:53.189Z,0.00
2018-01-25T03:31:53.223Z,0.00
2018-01-25T03:32:53.194Z,0.00
2018-01-25T03:33:53.183Z,0.00
2018-01-25T03:34:53.194Z,0.00
2018-01-25T03:35:53.190Z,0.00
2018-01-25T03:36:53.232Z,0.00
2018-01-25T03:37:53.187Z,0.00
2018-01-25T03:38:53.188Z,0.00
2018-01-25T03:39:53.187Z,0.00
2018-01-25T03:40:53.186Z,0.00
2018-01-25T03:41:53.220Z,0.00
2018-01-25T03:42:53.184Z,0.00
2018-01-25T03:43:53.184Z,0.00
2018-01-25T03:44:53.222Z,0.00
2018-01-25T03:45:53.178Z,0.00
2018-01-25T03:46:53.171Z,0.00
2018-01-25T03:47:53.220Z,0.00
2018-01-25T03:48:53.176Z,0.00
2018-01-25T03:49:53.177Z,0.00
2018-01-25T03:50:53.165Z,0.00
2018-01-25T03:51:53.208Z,0.00
2018-01-25T03:52:53.172Z,0.00
2018-01-25T03:53:53.162Z,0.00
2018-01-25T03:54:53.162Z,0.00
2018-01-25T03:55:53.159Z,0.00
2018-01-25T03:56:53.207Z,0.00
2018-01-25T03:57:53.170Z,0.00
2018-01-25T03:58:53.210Z,0.00
2018-01-25T03:59:53.164Z,0.00
2018-01-25T04:00:53.171Z,0.00
2018-01-25T04:01:53.169Z,0.00
2018-01-25T04:02:53.208Z,0.00
2018-01-25T04:03:53.153Z,0.00
2018-01-25T04:04:53.150Z,0.00
2018-01-25T04:05:53.151Z,0.00
2018-01-25T04:06:53.149Z,0.00
2018-01-25T04:07:53.202Z,0.00
2018-01-25T04:08:53.197Z,0.00
2018-01-25T04:09:53.148Z,0.00
2018-01-25T04:10:53.158Z,0.00
2018-01-25T04:11:53.146Z,0.00
2018-01-25T04:12:53.146Z,0.00
2018-01-25T04:13:53.190Z,0.00
2018-01-25T04:14:53.155Z,0.00
2018-01-25T04:15:53.199Z,0.00
2018-01-25T04:16:53.151Z,0.00
2018-01-25T04:17:53.167Z,0.00
2018-01-25T04:18:53.205Z,0.00
2018-01-25T04:19:53.187Z,0.00
2018-01-25T04:20:53.165Z,0.00
2018-01-25T04:21:53.163Z,0.00
2018-01-25T04:22:53.166Z,0.00
2018-01-25T04:23:53.216Z,0.00
2018-01-25T04:24:53.151Z,0.00
2018-01-25T04:25:53.150Z,0.00
2018-01-25T04:26:53.163Z,0.00
2018-01-25T04:27:53.149Z,0.00
2018-01-25T04:28:53.201Z,0.00
2018-01-25T04:29:53.149Z,0.00
2018-01-25T04:30:53.154Z,0.00
2018-01-25T04:31:53.148Z,0.00
2018-01-25T04:32:53.156Z,0.00
2018-01-25T04:33:53.204Z,0.00
2018-01-25T04:34:53.140Z,0.00
2018-01-25T04:35:53.149Z,0.00
2018-01-25T04:36:53.140Z,0.00
2018-01-25T04:37:53.152Z,0.00
2018-01-25T04:38:53.151Z,0.00
2018-01-25T04:39:53.188Z,0.00
2018-01-25T04:40:53.138Z,0.00
2018-01-25T04:41:53.146Z,0.00
2018-01-25T04:42:53.134Z,0.00
2018-01-25T04:43:53.135Z,0.00
2018-01-25T04:44:53.372Z,0.00
2018-01-25T04:45:53.143Z,0.00
2018-01-25T04:46:54.014Z,0.00
2018-01-25T04:47:53.138Z,0.00
2018-01-25T04:48:53.187Z,0.00
2018-01-25T04:49:53.132Z,0.00
2018-01-25T04:50:53.130Z,0.00
2018-01-25T04:51:53.124Z,0.00
2018-01-25T04:52:53.134Z,0.00
2018-01-25T04:53:53.172Z,0.00
2018-01-25T04:54:53.124Z,0.00
2018-01-25T04:55:53.164Z,0.00
2018-01-25T04:56:53.133Z,0.00
2018-01-25T04:57:53.124Z,0.00
2018-01-25T04:58:53.130Z,0.00
2018-01-25T04:59:53.119Z,0.00
2018-01-25T05:00:53.170Z,0.00
2018-01-25T05:01:53.129Z,0.00
2018-01-25T05:02:53.159Z,0.00
2018-01-25T05:03:53.123Z,0.00
2018-01-25T05:04:53.124Z,0.00
2018-01-25T05:05:53.124Z,0.00
2018-01-25T05:06:53.161Z,0.00
2018-01-25T05:07:53.118Z,0.00
2018-01-25T05:08:53.127Z,0.00
2018-01-25T05:09:53.110Z,0.00
2018-01-25T05:10:53.125Z,0.00
2018-01-25T05:11:53.149Z,0.00
2018-01-25T05:12:53.122Z,0.00
2018-01-25T05:13:53.122Z,0.00
2018-01-25T05:14:53.120Z,0.00
2018-01-25T05:15:53.115Z,0.00
2018-01-25T05:16:53.160Z,0.00
2018-01-25T05:17:53.148Z,0.00
2018-01-25T05:18:53.118Z,0.00
2018-01-25T05:19:53.110Z,0.00
2018-01-25T05:20:53.105Z,0.00
2018-01-25T05:21:53.113Z,0.00
2018-01-25T05:22:53.138Z,0.00
2018-01-25T05:23:53.111Z,0.00
2018-01-25T05:24:53.116Z,0.00
2018-01-25T05:25:53.108Z,0.00
2018-01-25T05:26:53.101Z,0.00
2018-01-25T05:27:53.155Z,0.00
2018-01-25T05:28:53.107Z,0.00
2018-01-25T05:29:53.120Z,0.00
2018-01-25T05:30:53.113Z,0.00
2018-01-25T05:31:53.101Z,0.00
2018-01-25T05:32:53.145Z,0.00
2018-01-25T05:33:53.091Z,0.00
2018-01-25T05:34:53.101Z,0.00
2018-01-25T05:35:53.102Z,0.00
2018-01-25T05:36:53.102Z,0.00
2018-01-25T05:37:53.148Z,0.00
2018-01-25T05:38:53.100Z,0.00
2018-01-25T05:39:53.098Z,0.00
2018-01-25T05:40:53.097Z,0.00
2018-01-25T05:41:53.084Z,0.00
2018-01-25T05:42:53.131Z,0.00
2018-01-25T05:43:53.211Z,0.00
2018-01-25T05:44:53.098Z,0.00
2018-01-25T05:45:53.098Z,0.00
2018-01-25T05:46:53.081Z,0.00
2018-01-25T05:47:53.128Z,0.00
2018-01-25T05:48:53.079Z,0.00
2018-01-25T05:49:53.093Z,0.00
2018-01-25T05:50:53.951Z,0.00
2018-01-25T05:51:53.084Z,0.00
2018-01-25T05:52:53.135Z,0.00
2018-01-25T05:53:53.089Z,0.00
2018-01-25T05:54:53.077Z,0.00
2018-01-25T05:55:53.093Z,0.00
2018-01-25T05:56:53.092Z,0.00
2018-01-25T05:57:53.133Z,0.00
2018-01-25T05:58:53.091Z,0.00
2018-01-25T05:59:53.091Z,0.00
2018-01-25T06:00:53.076Z,0.00
2018-01-25T06:01:53.133Z,0.00
2018-01-25T06:02:53.144Z,0.00
2018-01-25T06:03:53.080Z,0.00
2018-01-25T06:04:53.083Z,0.00
2018-01-25T06:05:53.082Z,0.00
2018-01-25T06:06:53.123Z,0.00
2018-01-25T06:07:53.084Z,0.00
2018-01-25T06:08:53.119Z,0.00
2018-01-25T06:09:53.067Z,0.00
2018-01-25T06:10:53.079Z,0.00
2018-01-25T06:11:53.075Z,0.00
2018-01-25T06:12:53.070Z,0.00
2018-01-25T06:13:53.106Z,0.00
2018-01-25T06:14:53.067Z,0.00
2018-01-25T06:15:53.069Z,0.00
2018-01-25T06:16:53.074Z,0.00
2018-01-25T06:17:53.492Z,0.00
2018-01-25T06:18:53.072Z,0.00
2018-01-25T06:19:53.072Z,0.00
2018-01-25T06:20:53.066Z,0.00
2018-01-25T06:21:53.117Z,0.00
2018-01-25T06:22:53.068Z,0.00
2018-01-25T06:23:53.065Z,0.00
2018-01-25T06:24:53.057Z,0.00
2018-01-25T06:25:53.114Z,0.00
2018-01-25T06:26:53.056Z,0.00
2018-01-25T06:27:53.056Z,0.00
2018-01-25T06:28:53.101Z,0.00
2018-01-25T06:29:53.063Z,0.00
2018-01-25T06:30:53.049Z,0.00
2018-01-25T06:31:53.071Z,0.00
2018-01-25T06:32:53.103Z,0.00
2018-01-25T06:33:53.051Z,0.00
2018-01-25T06:34:53.046Z,0.00
2018-01-25T06:35:53.113Z,0.00
2018-01-25T06:36:53.046Z,0.00
2018-01-25T06:37:53.042Z,0.00
2018-01-25T06:38:53.969Z,0.00
2018-01-25T06:39:53.054Z,0.00
2018-01-25T06:40:53.077Z,0.00
2018-01-25T06:41:53.048Z,0.00
2018-01-25T06:42:53.068Z,0.00
2018-01-25T06:43:53.088Z,0.00
2018-01-25T06:44:53.048Z,0.00
2018-01-25T06:45:53.045Z,0.00
2018-01-25T06:46:53.048Z,0.00
2018-01-25T06:47:53.029Z,0.00
2018-01-25T06:48:53.084Z,0.00
2018-01-25T06:49:53.043Z,0.00
2018-01-25T06:50:53.037Z,0.00
2018-01-25T06:51:53.026Z,0.00
2018-01-25T06:52:53.038Z,0.00
2018-01-25T06:53:53.148Z,5.63
2018-01-25T06:54:53.035Z,5.63
2018-01-25T06:55:53.037Z,5.63
2018-01-25T06:56:53.043Z,5.63
2018-01-25T06:57:53.025Z,5.63
2018-01-25T06:58:53.069Z,5.63
2018-01-25T06:59:53.025Z,5.63
2018-01-25T07:00:53.033Z,5.63
2018-01-25T07:01:53.027Z,5.63
2018-01-25T07:02:53.032Z,5.63
2018-01-25T07:03:53.060Z,11.25
2018-01-25T07:04:53.030Z,11.25
2018-01-25T07:05:53.014Z,11.25
2018-01-25T07:06:53.026Z,11.25
2018-01-25T07:07:53.021Z,16.88
2018-01-25T07:08:53.052Z,16.88
2018-01-25T07:09:53.024Z,16.88
2018-01-25T07:10:53.022Z,16.88
2018-01-25T07:11:53.012Z,16.88
2018-01-25T07:12:53.017Z,16.88
2018-01-25T07:13:53.069Z,22.50
2018-01-25T07:14:53.020Z,22.50
2018-01-25T07:15:53.019Z,22.50
2018-01-25T07:16:53.018Z,22.50
2018-01-25T07:17:53.002Z,28.13
2018-01-25T07:18:53.047Z,28.13
2018-01-25T07:19:53.019Z,28.13
2018-01-25T07:20:53.009Z,28.13
2018-01-25T07:21:53.002Z,28.13
2018-01-25T07:22:53.007Z,28.13
2018-01-25T07:23:53.040Z,33.75
2018-01-25T07:24:52.997Z,33.75
2018-01-25T07:25:53.001Z,39.38
2018-01-25T07:26:53.050Z,45.00
2018-01-25T07:27:53.029Z,45.00
2018-01-25T07:28:53.045Z,50.63
2018-01-25T07:29:53.006Z,50.63
2018-01-25T07:30:52.993Z,50.63
2018-01-25T07:31:53.006Z,56.25
2018-01-25T07:32:53.005Z,56.25
2018-01-25T07:33:53.046Z,56.25
2018-01-25T07:34:52.991Z,56.25
2018-01-25T07:35:52.987Z,56.25
2018-01-25T07:36:53.000Z,61.88
2018-01-25T07:37:53.003Z,61.88
2018-01-25T07:38:53.042Z,61.88
2018-01-25T07:39:53.049Z,67.50
2018-01-25T07:40:52.994Z,67.50
2018-01-25T07:41:53.394Z,78.75
2018-01-25T07:42:53.101Z,78.75
2018-01-25T07:43:53.032Z,78.75
2018-01-25T07:44:52.993Z,84.38
2018-01-25T07:45:52.988Z,90.00
2018-01-25T07:46:52.983Z,95.63
2018-01-25T07:47:52.993Z,90.00
2018-01-25T07:48:53.031Z,90.00
2018-01-25T07:49:52.986Z,95.63
2018-01-25T07:50:52.977Z,101.25
2018-01-25T07:51:52.981Z,101.25
2018-01-25T07:52:53.019Z,106.88
2018-01-25T07:53:52.977Z,112.50
2018-01-25T07:54:53.028Z,118.13
2018-01-25T07:55:53.001Z,123.75
2018-01-25T07:56:52.978Z,118.13
2018-01-25T07:57:53.023Z,123.75
2018-01-25T07:58:52.986Z,123.75
2018-01-25T07:59:52.977Z,129.38
2018-01-25T08:00:53.022Z,135.00
2018-01-25T08:01:52.981Z,140.63
2018-01-25T08:02:53.026Z,146.25
2018-01-25T08:03:52.971Z,157.50
2018-01-25T08:04:52.984Z,174.38
2018-01-25T08:05:53.019Z,180.00
2018-01-25T08:06:52.988Z,180.00
2018-01-25T08:07:53.026Z,174.38
2018-01-25T08:08:52.979Z,174.38
2018-01-25T08:09:53.511Z,168.75
2018-01-25T08:10:53.023Z,163.13
2018-01-25T08:11:52.972Z,163.13
2018-01-25T08:12:52.976Z,174.38
2018-01-25T08:13:52.991Z,185.63
2018-01-25T08:14:52.975Z,202.50
2018-01-25T08:15:53.027Z,196.88
2018-01-25T08:16:52.984Z,196.88
2018-01-25T08:17:53.021Z,202.50
2018-01-25T08:18:52.969Z,202.50
2018-01-25T08:19:52.985Z,191.25
2018-01-25T08:20:53.017Z,196.88
2018-01-25T08:21:52.975Z,202.50
2018-01-25T08:22:53.922Z,208.13
2018-01-25T08:23:52.964Z,219.38
2018-01-25T08:24:52.964Z,230.63
2018-01-25T08:25:52.966Z,236.25
2018-01-25T08:26:52.974Z,241.88
2018-01-25T08:27:53.016Z,236.25
2018-01-25T08:28:52.985Z,230.63
2018-01-25T08:29:52.965Z,230.63
2018-01-25T08:30:52.963Z,230.63
2018-01-25T08:31:53.002Z,219.38
2018-01-25T08:32:52.974Z,213.75
2018-01-25T08:33:52.961Z,208.13
2018-01-25T08:34:52.971Z,208.13
2018-01-25T08:35:52.966Z,196.88
2018-01-25T08:36:53.024Z,185.63
2018-01-25T08:37:52.967Z,180.00
2018-01-25T08:38:52.978Z,174.38
2018-01-25T08:39:52.981Z,168.75
2018-01-25T08:40:52.963Z,163.13
2018-01-25T08:41:52.969Z,151.88
2018-01-25T08:42:53.011Z,151.88
2018-01-25T08:43:52.958Z,146.25
2018-01-25T08:44:52.971Z,135.00
2018-01-25T08:45:52.966Z,135.00
2018-01-25T08:46:52.981Z,135.00
2018-01-25T08:47:53.024Z,129.38
2018-01-25T08:48:52.979Z,129.38
2018-01-25T08:49:52.980Z,129.38
2018-01-25T08:50:52.974Z,129.38
2018-01-25T08:51:52.966Z,129.38
2018-01-25T08:52:53.010Z,140.63
2018-01-25T08:53:52.964Z,146.25
2018-01-25T08:54:53.101Z,140.63
2018-01-25T08:55:52.973Z,146.25
2018-01-25T08:56:52.964Z,157.50
2018-01-25T08:57:53.003Z,168.75
2018-01-25T08:58:52.960Z,174.38
2018-01-25T08:59:53.008Z,185.63
2018-01-25T09:00:52.969Z,185.63
2018-01-25T09:01:52.970Z,180.00
2018-01-25T09:02:53.004Z,180.00
2018-01-25T09:03:52.960Z,185.63
2018-01-25T09:04:52.969Z,174.38
2018-01-25T09:05:52.967Z,168.75
2018-01-25T09:06:53.002Z,157.50
2018-01-25T09:07:52.963Z,151.88
2018-01-25T09:08:53.014Z,151.88
2018-01-25T09:09:52.977Z,157.50
2018-01-25T09:10:52.977Z,151.88
2018-01-25T09:11:52.962Z,151.88
2018-01-25T09:12:52.963Z,157.50
2018-01-25T09:13:53.024Z,157.50
2018-01-25T09:14:52.974Z,157.50
2018-01-25T09:15:52.967Z,151.88
2018-01-25T09:16:52.973Z,146.25
2018-01-25T09:17:53.010Z,135.00
2018-01-25T09:18:52.967Z,129.38
2018-01-25T09:19:53.003Z,123.75
2018-01-25T09:20:52.967Z,129.38
2018-01-25T09:21:52.973Z,135.00
2018-01-25T09:22:52.972Z,140.63
2018-01-25T09:23:52.972Z,151.88
2018-01-25T09:24:53.013Z,163.13
2018-01-25T09:25:52.966Z,180.00
2018-01-25T09:26:52.974Z,180.00
2018-01-25T09:27:53.007Z,191.25
2018-01-25T09:28:52.976Z,225.00
2018-01-25T09:29:52.972Z,241.88
2018-01-25T09:30:52.964Z,241.88
2018-01-25T09:31:53.008Z,225.00
2018-01-25T09:32:52.979Z,219.38
2018-01-25T09:33:53.308Z,225.00
2018-01-25T09:34:52.969Z,230.63
2018-01-25T09:35:52.978Z,236.25
2018-01-25T09:36:53.747Z,270.00
2018-01-25T09:37:52.966Z,264.38
2018-01-25T09:38:52.976Z,253.13
2018-01-25T09:39:52.968Z,253.13
2018-01-25T09:40:52.980Z,264.38
2018-01-25T09:41:53.014Z,270.00
2018-01-25T09:42:53.569Z,326.25
2018-01-25T09:43:52.974Z,348.75
2018-01-25T09:44:52.982Z,360.00
2018-01-25T09:45:53.028Z,410.63
2018-01-25T09:46:53.010Z,421.88
2018-01-25T09:47:52.976Z,410.63
2018-01-25T09:48:52.983Z,416.25
2018-01-25T09:49:53.580Z,416.25
2018-01-25T09:50:52.982Z,416.25
2018-01-25T09:51:53.024Z,410.63
2018-01-25T09:52:52.978Z,416.25
2018-01-25T09:53:52.992Z,433.13
2018-01-25T09:54:52.976Z,438.75
2018-01-25T09:55:52.978Z,421.88
2018-01-25T09:56:53.020Z,450.00
2018-01-25T09:57:52.991Z,483.75
2018-01-25T09:58:52.990Z,438.75
2018-01-25T09:59:52.990Z,421.88
2018-01-25T10:00:52.984Z,399.38
2018-01-25T10:01:53.065Z,410.63
2018-01-25T10:02:52.990Z,455.63
2018-01-25T10:03:52.988Z,450.00
2018-01-25T10:04:52.997Z,433.13
2018-01-25T10:05:53.026Z,433.13
2018-01-25T10:06:52.997Z,427.50
2018-01-25T10:07:53.043Z,416.25
2018-01-25T10:08:53.001Z,416.25
2018-01-25T10:09:52.992Z,438.75
2018-01-25T10:10:52.998Z,450.00
2018-01-25T10:11:52.996Z,466.88
2018-01-25T10:12:53.050Z,506.25
2018-01-25T10:13:52.996Z,534.38
2018-01-25T10:14:53.046Z,551.25
2018-01-25T10:15:53.008Z,551.25
2018-01-25T10:16:53.009Z,556.88
2018-01-25T10:17:53.009Z,568.13
2018-01-25T10:18:53.045Z,573.75
2018-01-25T10:19:53.012Z,590.63
2018-01-25T10:20:53.019Z,607.50
2018-01-25T10:21:53.017Z,624.38
2018-01-25T10:22:53.098Z,646.88
2018-01-25T10:23:53.062Z,675.00
2018-01-25T10:24:53.011Z,720.00
2018-01-25T10:25:53.009Z,753.75
2018-01-25T10:26:53.021Z,776.25
2018-01-25T10:27:53.023Z,810.00
2018-01-25T10:28:53.084Z,843.75
2018-01-25T10:29:53.018Z,849.38
2018-01-25T10:30:53.020Z,888.75
2018-01-25T10:31:53.963Z,945.00
2018-01-25T10:32:53.037Z,888.75
2018-01-25T10:33:53.080Z,905.63
2018-01-25T10:34:53.034Z,877.50
2018-01-25T10:35:53.027Z,883.13
2018-01-25T10:36:53.029Z,877.50
2018-01-25T10:37:53.032Z,877.50
2018-01-25T10:38:53.044Z,866.25
2018-01-25T10:39:53.085Z,843.75
2018-01-25T10:40:53.047Z,826.88
2018-01-25T10:41:53.048Z,815.63
2018-01-25T10:42:53.116Z,810.00
2018-01-25T10:43:53.045Z,815.63
2018-01-25T10:44:53.190Z,821.25
2018-01-25T10:45:53.634Z,821.25
2018-01-25T10:46:53.053Z,804.38
2018-01-25T10:47:53.063Z,787.50
2018-01-25T10:48:53.846Z,781.88
2018-01-25T10:49:53.101Z,781.88
2018-01-25T10:50:53.103Z,770.63
2018-01-25T10:51:53.074Z,781.88
2018-01-25T10:52:53.070Z,798.75
2018-01-25T10:53:53.067Z,826.88
2018-01-25T10:54:53.068Z,821.25
2018-01-25T10:55:53.122Z,804.38
2018-01-25T10:56:53.085Z,804.38
2018-01-25T10:57:53.081Z,804.38
2018-01-25T10:58:53.078Z,866.25
2018-01-25T10:59:53.112Z,843.75
2018-01-25T11:00:53.170Z,804.38
2018-01-25T11:01:53.096Z,765.00
2018-01-25T11:02:53.141Z,759.38
2018-01-25T11:03:53.137Z,804.38
2018-01-25T11:04:53.093Z,759.38
2018-01-25T11:05:53.108Z,703.13
2018-01-25T11:06:53.107Z,686.25
2018-01-25T11:07:53.113Z,680.63
2018-01-25T11:08:53.144Z,686.25
2018-01-25T11:09:53.988Z,697.50
2018-01-25T11:10:54.088Z,708.75
2018-01-25T11:11:53.149Z,725.63
2018-01-25T11:12:53.127Z,736.88
2018-01-25T11:13:53.122Z,753.75
2018-01-25T11:14:53.116Z,759.38
2018-01-25T11:15:53.119Z,742.50
2018-01-25T11:16:53.173Z,714.38
2018-01-25T11:17:53.123Z,697.50
2018-01-25T11:18:53.171Z,686.25
2018-01-25T11:19:53.142Z,680.63
2018-01-25T11:20:53.140Z,691.88
2018-01-25T11:21:53.132Z,697.50
2018-01-25T11:22:53.184Z,708.75
2018-01-25T11:23:53.135Z,725.63
2018-01-25T11:24:53.148Z,742.50
2018-01-25T11:25:53.136Z,753.75
2018-01-25T11:26:53.151Z,748.13
2018-01-25T11:27:53.193Z,753.75
2018-01-25T11:28:53.148Z,748.13
2018-01-25T11:29:53.152Z,748.13
2018-01-25T11:30:53.211Z,748.13
2018-01-25T11:31:53.150Z,753.75
2018-01-25T11:32:53.212Z,765.00
2018-01-25T11:33:53.163Z,753.75
2018-01-25T11:34:53.162Z,759.38
2018-01-25T11:35:53.159Z,759.38
2018-01-25T11:36:53.172Z,781.88
2018-01-25T11:37:53.168Z,810.00
2018-01-25T11:38:53.216Z,815.63
2018-01-25T11:39:53.169Z,798.75
2018-01-25T11:40:53.181Z,759.38
2018-01-25T11:41:53.172Z,725.63
2018-01-25T11:42:53.641Z,697.50
2018-01-25T11:43:53.232Z,669.38
2018-01-25T11:44:53.188Z,646.88
2018-01-25T11:45:53.195Z,658.13
2018-01-25T11:46:53.182Z,652.50
2018-01-25T11:47:53.236Z,630.00
2018-01-25T11:48:53.191Z,618.75
2018-01-25T11:49:53.234Z,624.38
2018-01-25T11:50:53.246Z,618.75
2018-01-25T11:51:53.194Z,607.50
2018-01-25T11:52:53.195Z,607.50
2018-01-25T11:53:53.201Z,635.63
2018-01-25T11:54:53.244Z,630.00
2018-01-25T11:55:53.214Z,607.50
2018-01-25T11:56:53.205Z,551.25
2018-01-25T11:57:53.204Z,517.50
2018-01-25T11:58:53.252Z,511.88
2018-01-25T11:59:53.218Z,540.00
2018-01-25T12:00:53.224Z,562.50
2018-01-25T12:01:53.222Z,551.25
2018-01-25T12:02:53.214Z,478.13
2018-01-25T12:03:53.258Z,427.50
2018-01-25T12:04:53.274Z,433.13
2018-01-25T12:05:53.221Z,461.25
2018-01-25T12:06:54.110Z,466.88
2018-01-25T12:07:53.223Z,416.25
2018-01-25T12:08:53.278Z,365.63
2018-01-25T12:09:53.237Z,376.88
2018-01-25T12:10:53.312Z,388.13
2018-01-25T12:11:53.240Z,343.13
2018-01-25T12:12:53.242Z,337.50
2018-01-25T12:13:53.233Z,343.13
2018-01-25T12:14:53.246Z,348.75
2018-01-25T12:15:53.291Z,376.88
2018-01-25T12:16:53.247Z,360.00
2018-01-25T12:17:53.281Z,354.38
2018-01-25T12:18:53.249Z,320.63
2018-01-25T12:19:53.242Z,320.63
2018-01-25T12:20:53.244Z,315.00
2018-01-25T12:21:53.356Z,303.75
2018-01-25T12:22:54.028Z,298.13
2018-01-25T12:23:53.256Z,309.38
2018-01-25T12:24:53.257Z,348.75
2018-01-25T12:25:53.258Z,360.00
2018-01-25T12:26:53.260Z,348.75
2018-01-25T12:27:53.303Z,343.13
2018-01-25T12:28:53.258Z,331.88
2018-01-25T12:29:53.251Z,315.00
2018-01-25T12:30:53.253Z,309.38
2018-01-25T12:31:53.264Z,331.88
2018-01-25T12:32:53.312Z,343.13
2018-01-25T12:33:53.264Z,337.50
2018-01-25T12:34:53.268Z,320.63
2018-01-25T12:35:53.269Z,303.75
2018-01-25T12:36:53.262Z,292.50
2018-01-25T12:37:53.312Z,286.88
2018-01-25T12:38:53.311Z,286.88
2018-01-25T12:39:53.263Z,292.50
2018-01-25T12:40:53.265Z,303.75
2018-01-25T12:41:53.263Z,315.00
2018-01-25T12:42:53.277Z,320.63
2018-01-25T12:43:53.322Z,303.75
2018-01-25T12:44:53.275Z,281.25
2018-01-25T12:45:53.277Z,281.25
2018-01-25T12:46:53.279Z,275.63
2018-01-25T12:47:53.319Z,270.00
2018-01-25T12:48:53.311Z,303.75
2018-01-25T12:49:53.269Z,354.38
2018-01-25T12:50:53.282Z,376.88
2018-01-25T12:51:53.275Z,376.88
2018-01-25T12:52:53.274Z,371.25
2018-01-25T12:53:53.320Z,365.63
2018-01-25T12:54:54.095Z,360.00
2018-01-25T12:55:53.279Z,348.75
2018-01-25T12:56:54.157Z,365.63